createdAt,value
2019-01-11T00:00:25.524Z,99.99
2019-01-11T00:01:35.344Z,99.99
2019-01-11T00:02:45.198Z,99.99
2019-01-11T00:03:55.284Z,99.99
2019-01-11T00:05:05.348Z,99.99
2019-01-11T00:06:15.418Z,99.99
2019-01-11T00:07:25.514Z,99.99
2019-01-11T00:08:35.333Z,99.99
2019-01-11T00:09:45.571Z,99.99
2019-01-11T00:10:55.614Z,99.99
2019-01-11T00:12:05.420Z,99.99
2019-01-11T00:13:15.210Z,99.99
2019-01-11T00:14:25.025Z,99.99
2019-01-11T00:15:35.166Z,99.99
2019-01-11T00:16:45.484Z,99.99
2019-01-11T00:17:55.538Z,99.99
2019-01-11T00:19:09.716Z,99.99
2019-01-11T00:20:19.765Z,99.99
2019-01-11T00:21:30.227Z,99.99
2019-01-11T00:22:40.278Z,99.99
2019-01-11T00:23:50.339Z,99.99
2019-01-11T00:25:03.411Z,99.99
2019-01-11T00:26:13.498Z,99.99
2019-01-11T00:27:23.058Z,99.99
2019-01-11T00:28:33.159Z,99.99
2019-01-11T00:29:43.236Z,99.99
2019-01-11T00:30:53.280Z,99.99
2019-01-11T00:32:03.370Z,99.99
2019-01-11T00:33:13.435Z,99.99
2019-01-11T00:34:23.226Z,99.99
2019-01-11T00:35:33.337Z,99.99
2019-01-11T00:36:43.423Z,99.99
2019-01-11T00:37:53.479Z,99.99
2019-01-11T00:39:03.922Z,99.99
2019-01-11T00:40:13.750Z,99.99
2019-01-11T00:41:23.808Z,99.99
2019-01-11T00:42:33.924Z,99.99
2019-01-11T00:43:44.192Z,99.99
2019-01-11T00:44:54.012Z,99.99
2019-01-11T00:46:04.082Z,99.99
2019-01-11T00:47:14.146Z,99.99
2019-01-11T00:48:24.233Z,99.99
2019-01-11T00:49:34.322Z,99.99
2019-01-11T00:50:44.498Z,99.99
2019-01-11T00:51:54.051Z,99.99
2019-01-11T00:53:04.134Z,99.99
2019-01-11T00:54:14.183Z,99.99
2019-01-11T00:55:24.253Z,99.99
2019-01-11T00:56:34.324Z,99.99
2019-01-11T00:57:44.406Z,99.99
2019-01-11T00:58:54.209Z,99.99
2019-01-11T01:00:06.334Z,99.99
2019-01-11T01:01:16.789Z,99.99
2019-01-11T01:02:26.591Z,99.99
2019-01-11T01:03:36.652Z,99.99
2019-01-11T01:04:46.716Z,99.99
2019-01-11T01:05:56.338Z,99.99
2019-01-11T01:07:09.005Z,99.99
2019-01-11T01:08:19.171Z,99.99
2019-01-11T01:09:35.759Z,99.99
2019-01-11T01:10:45.826Z,99.99
2019-01-11T01:11:55.885Z,99.99
2019-01-11T01:13:05.967Z,99.99
2019-01-11T01:14:16.013Z,99.99
2019-01-11T01:15:26.099Z,99.99
2019-01-11T01:16:36.189Z,99.99
2019-01-11T01:17:46.006Z,99.99
2019-01-11T01:18:56.318Z,99.99
2019-01-11T01:20:06.371Z,99.99
2019-01-11T01:21:16.432Z,99.99
2019-01-11T01:22:26.495Z,99.99
2019-01-11T01:23:36.290Z,99.99
2019-01-11T01:24:46.319Z,99.99
2019-01-11T01:25:55.856Z,99.99
2019-01-11T01:27:06.392Z,99.99
2019-01-11T01:28:16.455Z,99.99
2019-01-11T01:29:26.501Z,99.99
2019-01-11T01:30:36.356Z,99.99
2019-01-11T01:31:46.732Z,99.99
2019-01-11T01:32:57.170Z,99.99
2019-01-11T01:34:07.065Z,99.99
2019-01-11T01:35:16.611Z,99.99
2019-01-11T01:36:26.160Z,99.99
2019-01-11T01:37:35.702Z,99.99
2019-01-11T01:38:45.743Z,99.99
2019-01-11T01:39:56.019Z,99.99
2019-01-11T01:41:08.531Z,99.99
2019-01-11T01:42:18.577Z,99.99
2019-01-11T01:43:28.418Z,99.99
2019-01-11T01:44:38.685Z,99.99
2019-01-11T01:45:48.751Z,99.99
2019-01-11T01:46:58.822Z,99.99
2019-01-11T01:48:08.938Z,99.99
2019-01-11T01:49:19.119Z,99.99
2019-01-11T01:50:34.055Z,99.99
2019-01-11T01:51:43.851Z,99.99
2019-01-11T01:52:53.905Z,99.99
2019-01-11T01:54:04.266Z,99.99
2019-01-11T01:55:14.077Z,99.99
2019-01-11T01:56:24.268Z,99.99
2019-01-11T01:57:34.322Z,99.99
2019-01-11T01:58:44.664Z,99.99
2019-01-11T01:59:54.762Z,99.99
2019-01-11T02:01:04.457Z,99.99
2019-01-11T02:02:14.003Z,99.99
2019-01-11T02:03:24.067Z,99.99
2019-01-11T02:04:33.871Z,99.99
2019-01-11T02:05:43.942Z,99.99
2019-01-11T02:06:53.816Z,99.99
2019-01-11T02:08:04.356Z,99.99
2019-01-11T02:09:14.483Z,99.99
2019-01-11T02:10:24.527Z,99.99
2019-01-11T02:11:34.832Z,99.99
2019-01-11T02:12:44.903Z,99.99
2019-01-11T02:13:54.995Z,99.99
2019-01-11T02:15:05.076Z,99.99
2019-01-11T02:16:15.127Z,99.99
2019-01-11T02:17:25.195Z,99.99
2019-01-11T02:18:35.066Z,99.99
2019-01-11T02:19:44.914Z,99.99
2019-01-11T02:20:54.978Z,99.99
2019-01-11T02:22:04.975Z,99.99
2019-01-11T02:23:15.467Z,99.99
2019-01-11T02:24:25.265Z,99.99
2019-01-11T02:25:35.076Z,99.99
2019-01-11T02:26:51.639Z,99.99
2019-01-11T02:28:02.810Z,99.99
2019-01-11T02:29:13.066Z,99.99
2019-01-11T02:30:23.131Z,99.99
2019-01-11T02:31:32.692Z,99.99
2019-01-11T02:32:42.689Z,99.99
2019-01-11T02:34:00.084Z,99.99
2019-01-11T02:35:10.105Z,99.99
2019-01-11T02:36:20.255Z,99.99
2019-01-11T02:37:30.347Z,99.99
2019-01-11T02:38:40.165Z,99.99
2019-01-11T02:39:50.217Z,99.99
2019-01-11T02:41:01.019Z,99.99
2019-01-11T02:42:11.109Z,99.99
2019-01-11T02:43:21.189Z,99.99
2019-01-11T02:44:32.593Z,99.99
2019-01-11T02:45:42.737Z,99.99
2019-01-11T02:46:52.848Z,99.99
2019-01-11T02:48:02.914Z,99.99
2019-01-11T02:49:12.993Z,99.99
2019-01-11T02:50:23.101Z,99.99
2019-01-11T02:51:33.180Z,99.99
2019-01-11T02:52:43.247Z,99.99
2019-01-11T02:53:53.315Z,99.99
2019-01-11T02:55:03.472Z,99.99
2019-01-11T02:56:13.594Z,99.99
2019-01-11T02:57:23.637Z,99.99
2019-01-11T02:58:33.700Z,99.99
2019-01-11T02:59:43.765Z,99.99
2019-01-11T03:00:53.366Z,99.99
2019-01-11T03:02:04.645Z,99.99
2019-01-11T03:03:14.726Z,99.99
2019-01-11T03:35:40.774Z,95.36
2019-01-11T03:36:50.807Z,95.55
2019-01-11T03:38:00.865Z,96.31
2019-01-11T03:39:10.931Z,97.53
2019-01-11T03:40:21.077Z,98.67
2019-01-11T03:41:31.196Z,99.24
2019-01-11T03:42:41.278Z,99.99
2019-01-11T03:43:51.334Z,99.99
2019-01-11T03:45:01.187Z,99.99
2019-01-11T03:46:10.980Z,99.99
2019-01-11T03:47:21.141Z,99.99
2019-01-11T03:48:30.939Z,99.99
2019-01-11T03:49:40.995Z,99.99
2019-01-11T03:50:57.808Z,99.99
2019-01-11T03:52:08.011Z,99.99
2019-01-11T03:53:18.331Z,99.99
2019-01-11T03:54:27.983Z,99.99
2019-01-11T03:55:38.070Z,99.99
2019-01-11T03:56:48.148Z,99.99
2019-01-11T03:57:58.215Z,99.99
2019-01-11T03:59:11.112Z,99.99
2019-01-11T04:00:21.163Z,99.99
2019-01-11T04:01:31.498Z,99.99
2019-01-11T04:02:41.294Z,99.99
2019-01-11T04:03:51.362Z,99.99
2019-01-11T04:05:01.532Z,99.99
2019-01-11T04:06:11.108Z,99.99
2019-01-11T04:07:20.923Z,99.99
2019-01-11T04:08:30.714Z,99.99
2019-01-11T04:09:40.871Z,99.99
2019-01-11T04:10:51.945Z,99.99
2019-01-11T04:12:02.063Z,99.99
2019-01-11T04:13:11.881Z,99.99
2019-01-11T04:14:21.936Z,99.99
2019-01-11T04:15:32.003Z,99.99
2019-01-11T04:16:42.158Z,99.99
2019-01-11T04:17:51.958Z,99.99
2019-01-11T04:19:01.501Z,99.99
2019-01-11T04:20:11.542Z,99.99
2019-01-11T04:21:21.649Z,99.99
2019-01-11T04:22:32.228Z,99.99
2019-01-11T04:23:42.037Z,99.99
2019-01-11T04:24:52.122Z,99.99
2019-01-11T04:26:02.194Z,99.99
2019-01-11T04:27:11.760Z,99.99
2019-01-11T04:28:21.799Z,99.99
2019-01-11T04:29:31.954Z,99.99
2019-01-11T04:30:41.750Z,99.99
2019-01-11T04:31:51.836Z,99.99
2019-01-11T04:33:01.905Z,99.99
2019-01-11T04:34:11.956Z,99.99
2019-01-11T04:35:22.042Z,99.99
2019-01-11T04:36:31.877Z,99.99
2019-01-11T04:37:41.713Z,99.99
2019-01-11T04:38:51.549Z,99.99
2019-01-11T04:40:03.399Z,99.99
2019-01-11T04:41:14.541Z,99.99
2019-01-11T04:42:24.344Z,99.99
2019-01-11T04:43:34.144Z,99.99
2019-01-11T04:44:44.220Z,99.99
2019-01-11T04:45:54.274Z,99.99
2019-01-11T04:47:04.333Z,99.99
2019-01-11T04:48:14.405Z,99.99
2019-01-11T04:49:24.478Z,99.99
2019-01-11T04:50:34.295Z,99.99
2019-01-11T04:51:44.113Z,99.99
2019-01-11T04:52:54.169Z,99.99
2019-01-11T04:54:04.199Z,99.99
2019-01-11T04:55:14.004Z,99.99
2019-01-11T04:56:23.568Z,99.99
2019-01-11T04:57:33.681Z,99.99
2019-01-11T04:58:43.759Z,99.99
2019-01-11T04:59:53.899Z,99.99
2019-01-11T05:01:06.084Z,99.99
2019-01-11T05:02:16.143Z,99.99
2019-01-11T05:03:26.198Z,99.99
2019-01-11T05:04:37.268Z,99.99
2019-01-11T05:05:47.322Z,99.99
2019-01-11T05:06:57.189Z,99.99
2019-01-11T05:08:08.821Z,99.99
2019-01-11T05:09:18.917Z,99.99
2019-01-11T05:10:29.428Z,99.99
2019-01-11T05:11:39.487Z,99.99
2019-01-11T05:12:49.566Z,99.99
2019-01-11T05:13:59.643Z,99.99
2019-01-11T05:15:09.714Z,99.99
2019-01-11T05:16:19.515Z,99.99
2019-01-11T05:17:29.582Z,99.99
2019-01-11T05:18:39.641Z,99.99
2019-01-11T05:19:49.712Z,99.99
2019-01-11T05:21:00.008Z,99.99
2019-01-11T05:22:09.872Z,99.99
2019-01-11T05:23:20.267Z,99.99
2019-01-11T05:24:30.323Z,99.99
2019-01-11T05:25:40.376Z,99.99
2019-01-11T05:26:50.184Z,99.99
2019-01-11T05:28:00.385Z,99.99
2019-01-11T05:29:10.451Z,99.99
2019-01-11T05:30:20.257Z,99.99
2019-01-11T05:31:30.329Z,99.99
2019-01-11T05:32:39.887Z,99.99
2019-01-11T05:33:49.684Z,99.99
2019-01-11T05:34:59.791Z,99.99
2019-01-11T05:36:09.874Z,99.99
2019-01-11T05:37:19.685Z,99.99
2019-01-11T05:38:29.735Z,99.99
2019-01-11T05:39:39.792Z,99.99
2019-01-11T05:40:49.836Z,99.99
2019-01-11T05:41:59.880Z,99.99
2019-01-11T05:43:09.683Z,99.99
2019-01-11T05:44:19.494Z,99.99
2019-01-11T05:45:29.301Z,99.99
2019-01-11T05:46:39.410Z,99.99
2019-01-11T05:47:49.550Z,99.99
2019-01-11T05:48:59.098Z,99.99
2019-01-11T05:50:10.854Z,99.99
2019-01-11T05:51:27.140Z,99.99
2019-01-11T05:52:37.233Z,99.99
2019-01-11T05:53:47.323Z,99.99
2019-01-11T05:54:57.124Z,99.99
2019-01-11T05:56:06.931Z,99.99
2019-01-11T05:57:16.986Z,99.99
2019-01-11T05:58:27.049Z,99.99
2019-01-11T05:59:36.884Z,99.99
2019-01-11T06:00:46.924Z,99.99
2019-01-11T06:01:56.997Z,99.99
2019-01-11T06:03:07.060Z,99.99
2019-01-11T06:04:17.184Z,99.99
2019-01-11T06:05:27.327Z,99.99
2019-01-11T06:06:37.411Z,99.99
2019-01-11T06:07:47.495Z,99.99
2019-01-11T06:08:57.332Z,99.99
2019-01-11T06:10:07.139Z,99.99
2019-01-11T06:11:16.992Z,99.99
2019-01-11T06:12:27.048Z,99.99
2019-01-11T06:13:37.111Z,99.99
2019-01-11T06:14:47.159Z,99.99
2019-01-11T06:15:57.198Z,99.99
2019-01-11T06:17:07.244Z,99.99
2019-01-11T06:18:17.291Z,99.99
2019-01-11T06:19:27.549Z,99.99
2019-01-11T06:20:37.595Z,99.99
2019-01-11T06:21:47.687Z,99.99
2019-01-11T06:22:57.759Z,99.99
2019-01-11T06:24:07.817Z,99.99
2019-01-11T06:25:17.448Z,99.99
2019-01-11T06:26:27.543Z,99.99
2019-01-11T06:27:37.569Z,99.99
2019-01-11T06:28:47.890Z,99.99
2019-01-11T06:29:58.053Z,99.99
2019-01-11T06:31:08.212Z,99.99
2019-01-11T06:32:18.070Z,99.99
2019-01-11T06:33:28.154Z,99.99
2019-01-11T06:34:38.218Z,99.99
2019-01-11T06:35:48.288Z,99.99
2019-01-11T06:36:58.138Z,99.99
2019-01-11T06:38:08.790Z,99.99
2019-01-11T06:39:18.865Z,99.99
2019-01-11T06:40:28.657Z,99.99
2019-01-11T06:41:38.451Z,99.99
2019-01-11T06:42:48.234Z,99.99
2019-01-11T06:43:58.055Z,99.99
2019-01-11T06:45:11.250Z,99.99
2019-01-11T06:46:21.053Z,99.99
2019-01-11T06:47:30.333Z,99.99
2019-01-11T06:48:41.998Z,99.99
2019-01-11T06:49:52.052Z,99.99
2019-01-11T06:51:02.115Z,99.99
2019-01-11T06:52:11.933Z,99.99
2019-01-11T06:53:22.070Z,99.99
2019-01-11T06:54:32.228Z,99.99
2019-01-11T06:55:42.385Z,99.99
2019-01-11T06:56:52.485Z,99.99
2019-01-11T06:58:02.560Z,99.99
2019-01-11T06:59:12.624Z,99.99
2019-01-11T07:00:22.700Z,99.99
2019-01-11T07:01:32.802Z,99.99
2019-01-11T07:02:42.442Z,99.99
2019-01-11T07:03:52.240Z,99.99
2019-01-11T07:05:02.089Z,99.99
2019-01-11T07:06:12.139Z,99.99
2019-01-11T07:07:22.249Z,99.99
2019-01-11T07:08:32.332Z,99.99
2019-01-11T07:09:42.391Z,99.99
2019-01-11T07:10:52.511Z,99.99
2019-01-11T07:12:02.788Z,99.99
2019-01-11T07:13:12.841Z,99.99
2019-01-11T07:14:22.887Z,99.99
2019-01-11T07:15:34.454Z,99.99
2019-01-11T07:16:44.530Z,99.99
2019-01-11T07:17:54.687Z,99.99
2019-01-11T07:19:04.763Z,99.99
2019-01-11T07:20:14.828Z,99.99
2019-01-11T07:21:24.876Z,99.99
2019-01-11T07:22:34.969Z,99.99
2019-01-11T07:23:44.773Z,99.99
2019-01-11T07:24:54.582Z,99.99
2019-01-11T07:26:05.571Z,99.99
2019-01-11T07:27:15.663Z,99.99
2019-01-11T07:28:25.706Z,99.99
2019-01-11T07:29:35.523Z,99.99
2019-01-11T07:30:45.323Z,99.99
2019-01-11T07:31:55.401Z,99.99
2019-01-11T07:33:05.398Z,99.99
2019-01-11T07:34:15.445Z,99.99
2019-01-11T07:35:25.536Z,99.99
2019-01-11T07:36:35.633Z,99.99
2019-01-11T07:37:45.688Z,99.99
2019-01-11T07:38:55.471Z,99.99
2019-01-11T07:40:05.582Z,99.99
2019-01-11T07:41:15.638Z,99.99
2019-01-11T07:42:25.678Z,99.99
2019-01-11T07:43:35.550Z,99.99
2019-01-11T07:44:46.308Z,99.99
2019-01-11T07:45:56.384Z,99.99
2019-01-11T07:47:06.444Z,99.99
2019-01-11T07:48:16.499Z,99.99
2019-01-11T07:49:26.558Z,99.99
2019-01-11T07:50:36.646Z,99.99
2019-01-11T07:51:52.212Z,99.99
2019-01-11T07:53:02.078Z,99.99
2019-01-11T07:54:11.888Z,99.99
2019-01-11T07:55:22.013Z,99.99
2019-01-11T07:56:32.156Z,99.99
2019-01-11T07:57:41.951Z,99.99
2019-01-11T07:58:52.262Z,99.99
2019-01-11T08:00:02.435Z,99.99
2019-01-11T08:01:12.945Z,99.99
2019-01-11T08:02:23.052Z,99.99
2019-01-11T08:03:33.118Z,99.99
2019-01-11T08:04:43.225Z,99.99
2019-01-11T08:05:53.303Z,99.99
2019-01-11T08:07:03.360Z,99.99
2019-01-11T08:08:13.507Z,99.99
2019-01-11T08:09:23.570Z,99.99
2019-01-11T08:10:33.884Z,99.99
2019-01-11T08:11:43.941Z,99.99
2019-01-11T08:12:54.056Z,99.99
2019-01-11T08:14:04.136Z,99.99
2019-01-11T08:15:14.429Z,99.99
2019-01-11T08:16:24.484Z,99.99
2019-01-11T08:17:34.546Z,99.99
2019-01-11T08:18:44.610Z,99.99
2019-01-11T08:19:54.663Z,99.99
2019-01-11T08:21:04.729Z,99.99
2019-01-11T08:22:14.594Z,99.99
2019-01-11T08:23:24.716Z,99.99
2019-01-11T08:24:34.532Z,99.99
2019-01-11T08:25:44.599Z,99.99
2019-01-11T08:26:54.658Z,99.99
2019-01-11T08:28:04.738Z,99.99
2019-01-11T08:29:14.862Z,99.99
2019-01-11T08:30:24.925Z,99.99
2019-01-11T08:31:37.315Z,99.99
2019-01-11T08:32:47.112Z,99.99
2019-01-11T08:33:56.927Z,99.99
2019-01-11T08:35:06.997Z,99.99
2019-01-11T08:36:16.854Z,99.99
2019-01-11T08:37:27.119Z,99.99
2019-01-11T08:38:37.527Z,99.99
2019-01-11T08:39:47.593Z,99.99
2019-01-11T08:40:57.663Z,99.99
2019-01-11T08:42:07.720Z,99.99
2019-01-11T08:43:17.528Z,99.99
2019-01-11T08:44:27.590Z,99.99
2019-01-11T08:45:37.548Z,99.99
2019-01-11T08:46:47.637Z,99.99
2019-01-11T08:47:57.551Z,99.99
2019-01-11T08:49:08.270Z,99.99
2019-01-11T08:50:18.325Z,99.99
2019-01-11T08:51:28.411Z,99.99
2019-01-11T08:52:38.241Z,99.99
2019-01-11T08:53:48.301Z,99.99
2019-01-11T08:54:58.346Z,99.99
2019-01-11T08:56:10.991Z,99.99
2019-01-11T08:57:21.045Z,99.99
2019-01-11T08:58:31.083Z,99.99
2019-01-11T08:59:41.132Z,99.99
2019-01-11T09:00:51.250Z,99.99
2019-01-11T09:02:01.281Z,99.99
2019-01-11T09:03:11.348Z,99.99
2019-01-11T09:04:21.642Z,99.99
2019-01-11T09:05:31.448Z,99.99
2019-01-11T09:06:41.521Z,99.99
2019-01-11T09:07:51.583Z,99.99
2019-01-11T09:09:03.204Z,99.99
2019-01-11T09:10:13.512Z,99.99
2019-01-11T09:11:30.460Z,99.99
2019-01-11T09:12:40.791Z,99.99
2019-01-11T09:13:50.596Z,99.99
2019-01-11T09:15:00.726Z,99.99
2019-01-11T09:16:10.543Z,99.99
2019-01-11T09:17:25.823Z,99.99
2019-01-11T09:18:35.629Z,99.99
2019-01-11T09:19:45.442Z,99.99
2019-01-11T09:20:55.495Z,99.99
2019-01-11T09:22:05.280Z,99.99
2019-01-11T09:23:15.332Z,99.99
2019-01-11T09:24:25.159Z,99.99
2019-01-11T09:25:35.241Z,99.99
2019-01-11T09:26:45.556Z,99.99
2019-01-11T09:27:56.874Z,99.99
2019-01-11T09:29:06.690Z,99.99
2019-01-11T09:30:16.517Z,99.99
2019-01-11T09:31:26.833Z,99.99
2019-01-11T09:32:36.883Z,99.99
2019-01-11T09:33:46.951Z,99.99
2019-01-11T09:34:57.045Z,99.99
2019-01-11T09:36:08.613Z,99.99
2019-01-11T09:37:18.714Z,99.99
2019-01-11T09:38:28.524Z,99.68
2019-01-11T09:39:38.339Z,99.01
2019-01-11T09:40:48.399Z,97.45
2019-01-11T09:41:58.449Z,97.22
2019-01-11T09:43:08.328Z,97.12
2019-01-11T09:44:18.391Z,97.78
2019-01-11T09:45:28.443Z,97.88
2019-01-11T09:46:38.540Z,98.45
2019-01-11T09:47:48.643Z,98.3
2019-01-11T09:48:58.441Z,99.35
2019-01-11T09:50:09.006Z,99.54
2019-01-11T09:51:19.058Z,99.26
2019-01-11T09:52:29.116Z,99.63
2019-01-11T09:53:39.208Z,99.99
2019-01-11T09:54:49.022Z,99.87
2019-01-11T09:55:59.079Z,99.99
2019-01-11T09:57:08.902Z,99.99
2019-01-11T09:58:18.738Z,99.99
2019-01-11T09:59:34.888Z,99.99
2019-01-11T10:00:45.582Z,99.99
2019-01-11T10:02:02.010Z,99.99
2019-01-11T10:03:12.075Z,99.99
2019-01-11T10:04:21.621Z,99.99
2019-01-11T10:05:31.693Z,99.99
2019-01-11T10:06:41.743Z,99.99
2019-01-11T10:07:51.817Z,99.99
2019-01-11T10:09:02.070Z,99.99
2019-01-11T10:10:12.154Z,99.99
2019-01-11T10:11:21.990Z,99.26
2019-01-11T10:12:32.049Z,98.97
2019-01-11T10:13:42.194Z,99.02
2019-01-11T10:14:52.292Z,98.45
2019-01-11T10:16:02.366Z,98.64
2019-01-11T10:17:12.180Z,98.73
2019-01-11T10:18:22.259Z,99.44
2019-01-11T10:19:32.375Z,99.99
2019-01-11T10:20:42.173Z,99.44
2019-01-11T10:21:52.548Z,99.44
2019-01-11T10:23:02.734Z,99.35
2019-01-11T10:24:12.532Z,99.99
2019-01-11T10:25:22.354Z,99.91
2019-01-11T10:26:32.387Z,99.91
2019-01-11T10:27:42.477Z,99.99
2019-01-11T10:28:52.301Z,99.99
2019-01-11T10:30:03.534Z,99.99
2019-01-11T10:31:13.902Z,99.73
2019-01-11T10:32:23.979Z,99.91
2019-01-11T10:33:38.758Z,99.82
2019-01-11T10:34:48.848Z,99.82
2019-01-11T10:35:58.931Z,99.99
2019-01-11T10:37:08.992Z,99.99
2019-01-11T10:38:19.302Z,99.91
2019-01-11T10:39:29.379Z,99.73
2019-01-11T10:40:39.457Z,99.99
2019-01-11T10:41:49.528Z,99.99
2019-01-11T10:42:59.594Z,99.99
2019-01-11T10:44:09.677Z,99.99
2019-01-11T10:45:19.753Z,99.99
2019-01-11T10:46:29.835Z,99.91
2019-01-11T10:47:39.956Z,99.99
2019-01-11T10:48:50.135Z,99.91
2019-01-11T10:50:00.315Z,99.73
2019-01-11T10:51:10.141Z,99.91
2019-01-11T10:52:24.422Z,99.99
2019-01-11T10:53:34.479Z,99.99
2019-01-11T10:54:44.526Z,99.99
2019-01-11T10:55:54.092Z,99.99
2019-01-11T10:57:04.162Z,99.99
2019-01-11T10:58:14.470Z,99.99
2019-01-11T10:59:24.434Z,99.99
2019-01-11T11:00:35.507Z,99.99
2019-01-11T11:01:45.648Z,99.99
2019-01-11T11:02:55.713Z,99.99
2019-01-11T11:04:07.700Z,99.87
2019-01-11T11:05:17.777Z,99.99
2019-01-11T11:06:28.132Z,99.99
2019-01-11T11:07:37.968Z,99.99
2019-01-11T11:08:48.043Z,99.99
2019-01-11T11:09:57.605Z,99.99
2019-01-11T11:11:08.667Z,99.99
2019-01-11T11:12:22.110Z,99.99
2019-01-11T11:13:32.259Z,99.99
2019-01-11T11:14:42.467Z,99.99
2019-01-11T11:15:52.528Z,99.99
2019-01-11T11:17:02.765Z,99.63
2019-01-11T11:18:12.885Z,99.73
2019-01-11T11:19:22.973Z,99.99
2019-01-11T11:20:33.076Z,99.49
2019-01-11T11:21:43.170Z,99.02
2019-01-11T11:22:53.346Z,99.3
2019-01-11T11:24:04.056Z,99.26
2019-01-11T11:25:14.148Z,99.16
2019-01-11T11:26:24.336Z,98.97
2019-01-11T11:27:34.409Z,99.07
2019-01-11T11:28:44.477Z,99.07
2019-01-11T11:29:54.545Z,99.16
2019-01-11T11:31:06.555Z,99.99
2019-01-11T11:32:16.888Z,99.99
2019-01-11T11:33:26.950Z,99.99
2019-01-11T11:34:36.714Z,99.99
2019-01-11T11:35:46.529Z,99.99
2019-01-11T11:36:56.608Z,99.99
2019-01-11T11:38:07.675Z,99.99
2019-01-11T11:39:17.741Z,99.99
2019-01-11T11:40:27.809Z,99.99
2019-01-11T11:41:37.885Z,99.99
2019-01-11T11:42:49.213Z,99.99
2019-01-11T11:43:59.837Z,99.99
2019-01-11T11:45:10.349Z,99.99
2019-01-11T11:46:20.150Z,99.99
2019-01-11T11:47:30.275Z,99.99
2019-01-11T11:48:40.347Z,99.99
2019-01-11T11:49:50.143Z,99.99
2019-01-11T11:51:00.505Z,99.99
2019-01-11T11:52:10.628Z,99.99
2019-01-11T11:53:20.442Z,99.99
2019-01-11T11:54:30.575Z,99.99
2019-01-11T11:55:40.653Z,99.99
2019-01-11T11:56:51.021Z,99.73
2019-01-11T11:58:01.079Z,99.99
2019-01-11T11:59:11.195Z,99.99
2019-01-11T12:00:21.011Z,99.73
2019-01-11T12:01:31.077Z,99.77
2019-01-11T12:02:41.175Z,99.44
2019-01-11T12:03:51.575Z,99.99
2019-01-11T12:05:01.386Z,99.11
2019-01-11T12:06:11.459Z,99.68
2019-01-11T12:07:21.525Z,99.21
2019-01-11T12:08:31.589Z,98.83
2019-01-11T12:09:41.661Z,98.79
2019-01-11T12:10:51.747Z,99.07
2019-01-11T12:12:01.965Z,98.4
2019-01-11T12:13:11.804Z,98.69
2019-01-11T12:14:21.890Z,98.59
2019-01-11T12:15:32.211Z,98.5
2019-01-11T12:16:42.327Z,97.97
2019-01-11T12:17:52.195Z,98.36
2019-01-11T12:19:02.005Z,99.64
2019-01-11T12:20:12.068Z,99.99
2019-01-11T12:21:22.185Z,99.99
2019-01-11T12:22:32.266Z,99.99
2019-01-11T12:23:42.863Z,99.99
2019-01-11T12:24:52.954Z,99.99
2019-01-11T12:26:04.810Z,99.99
2019-01-11T12:27:14.864Z,99.99
2019-01-11T12:28:24.932Z,99.99
2019-01-11T12:29:35.006Z,99.99
2019-01-11T12:30:45.091Z,99.99
2019-01-11T12:31:55.216Z,99.99
2019-01-11T12:33:05.321Z,99.99
2019-01-11T12:34:15.418Z,99.99
2019-01-11T12:35:25.618Z,99.99
2019-01-11T12:36:35.449Z,99.99
2019-01-11T12:37:45.576Z,99.99
2019-01-11T12:38:55.661Z,99.99
2019-01-11T12:40:05.744Z,99.99
2019-01-11T12:41:15.860Z,99.99
2019-01-11T12:42:25.686Z,99.99
2019-01-11T12:43:35.746Z,99.99
2019-01-11T12:44:45.835Z,99.99
2019-01-11T12:45:55.921Z,99.99
2019-01-11T12:47:07.497Z,99.99
2019-01-11T12:48:18.023Z,99.99
2019-01-11T12:49:28.715Z,99.99
2019-01-11T12:50:38.898Z,99.99
2019-01-11T12:51:53.928Z,99.99
2019-01-11T12:53:04.414Z,99.99
2019-01-11T12:54:14.435Z,99.99
2019-01-11T12:55:24.490Z,99.99
2019-01-11T12:56:34.422Z,99.99
2019-01-11T12:57:44.549Z,99.99
2019-01-11T12:58:54.424Z,99.99
2019-01-11T13:00:04.813Z,99.99
2019-01-11T13:01:15.279Z,99.99
2019-01-11T13:02:25.343Z,99.99
2019-01-11T13:03:35.414Z,99.99
2019-01-11T13:04:45.260Z,99.99
2019-01-11T13:05:55.531Z,99.99
2019-01-11T13:07:05.674Z,99.99
2019-01-11T13:08:15.780Z,99.99
2019-01-11T13:09:25.934Z,99.99
2019-01-11T13:10:35.756Z,99.99
2019-01-11T13:11:45.567Z,99.99
2019-01-11T13:12:55.637Z,99.99
2019-01-11T13:14:06.559Z,99.99
2019-01-11T13:15:16.134Z,99.99
2019-01-11T13:16:26.248Z,99.99
2019-01-11T13:17:36.430Z,99.99
2019-01-11T13:18:46.523Z,99.99
2019-01-11T13:19:56.571Z,99.99
2019-01-11T13:21:06.623Z,99.99
2019-01-11T13:22:16.686Z,99.99
2019-01-11T13:23:26.724Z,99.99
2019-01-11T13:24:36.769Z,99.99
2019-01-11T13:25:46.830Z,99.99
2019-01-11T13:26:56.906Z,99.99
2019-01-11T13:28:08.957Z,99.99
2019-01-11T13:29:19.003Z,99.99
2019-01-11T13:30:28.802Z,99.99
2019-01-11T13:31:38.612Z,99.99
2019-01-11T13:32:48.698Z,99.99
2019-01-11T13:33:58.496Z,99.99
2019-01-11T13:35:08.569Z,99.99
2019-01-11T13:36:18.819Z,99.99
2019-01-11T13:37:28.685Z,99.99
2019-01-11T13:38:38.527Z,99.99
2019-01-11T13:39:48.378Z,99.99
2019-01-11T13:40:58.501Z,99.99
2019-01-11T13:42:08.545Z,99.99
2019-01-11T13:43:18.483Z,99.99
2019-01-11T13:44:28.549Z,99.99
2019-01-11T13:45:38.596Z,99.99
2019-01-11T13:46:48.649Z,99.99
2019-01-11T13:47:58.712Z,99.99
2019-01-11T13:49:09.787Z,99.99
2019-01-11T13:50:20.077Z,99.99
2019-01-11T13:51:30.138Z,99.99
2019-01-11T13:52:40.198Z,99.99
2019-01-11T13:53:50.264Z,99.99
2019-01-11T13:55:01.382Z,99.99
2019-01-11T13:56:11.473Z,99.99
2019-01-11T13:57:21.583Z,99.99
2019-01-11T13:58:31.689Z,99.99
2019-01-11T13:59:44.115Z,99.99
2019-01-11T14:00:54.469Z,99.99
2019-01-11T14:02:04.564Z,99.99
2019-01-11T14:03:14.609Z,99.99
2019-01-11T14:04:24.686Z,99.99
2019-01-11T14:05:34.743Z,99.99
2019-01-11T14:06:44.930Z,99.99
2019-01-11T14:07:55.034Z,99.99
2019-01-11T14:09:05.131Z,99.99
2019-01-11T14:10:15.252Z,99.99
2019-01-11T14:11:25.330Z,99.96
2019-01-11T14:12:36.611Z,99.99
2019-01-11T14:13:46.717Z,99.87
2019-01-11T14:14:56.772Z,99.99
2019-01-11T14:16:06.813Z,99.99
2019-01-11T14:17:16.665Z,99.99
2019-01-11T14:18:26.752Z,99.99
2019-01-11T14:19:36.900Z,99.99
2019-01-11T14:20:46.708Z,99.99
2019-01-11T14:21:57.326Z,99.99
2019-01-11T14:23:07.414Z,99.99
2019-01-11T14:24:17.240Z,99.99
2019-01-11T14:25:26.794Z,99.99
2019-01-11T14:26:36.868Z,99.99
2019-01-11T14:27:46.920Z,99.99
2019-01-11T14:28:56.745Z,99.99
2019-01-11T14:30:08.740Z,99.99
2019-01-11T14:31:18.600Z,99.99
2019-01-11T14:32:28.653Z,99.99
2019-01-11T14:33:38.808Z,99.99
2019-01-11T14:34:49.072Z,99.99
2019-01-11T14:35:58.891Z,99.99
2019-01-11T14:37:09.154Z,99.99
2019-01-11T14:38:19.226Z,99.99
2019-01-11T14:39:28.799Z,99.99
2019-01-11T14:40:38.619Z,99.99
2019-01-11T14:41:48.430Z,99.99
2019-01-11T14:42:58.253Z,99.99
2019-01-11T14:44:09.056Z,99.99
2019-01-11T14:45:19.766Z,99.99
2019-01-11T14:46:29.820Z,99.99
2019-01-11T14:47:39.874Z,99.99
2019-01-11T14:48:50.032Z,99.99
2019-01-11T14:49:59.824Z,99.99
2019-01-11T14:51:09.623Z,99.99
2019-01-11T14:52:23.023Z,99.99
2019-01-11T14:53:32.838Z,99.99
2019-01-11T14:54:42.933Z,99.99
2019-01-11T14:55:58.625Z,99.99
2019-01-11T14:57:09.688Z,99.99
2019-01-11T14:58:19.799Z,99.99
2019-01-11T14:59:36.483Z,99.99
2019-01-11T15:00:46.657Z,99.99
2019-01-11T15:01:56.718Z,99.99
2019-01-11T15:03:06.511Z,99.99
2019-01-11T15:04:15.808Z,99.99
2019-01-11T15:05:25.845Z,99.99
2019-01-11T15:06:35.901Z,99.99
2019-01-11T15:07:46.031Z,99.99
2019-01-11T15:08:56.117Z,99.99
2019-01-11T15:10:08.486Z,99.99
2019-01-11T15:11:18.555Z,99.99
2019-01-11T15:12:28.121Z,99.99
2019-01-11T15:13:38.192Z,99.99
2019-01-11T15:14:48.005Z,99.99
2019-01-11T15:15:58.132Z,99.99
2019-01-11T15:17:08.704Z,99.99
2019-01-11T15:18:19.663Z,99.99
2019-01-11T15:19:29.733Z,99.99
2019-01-11T15:20:39.816Z,99.99
2019-01-11T15:21:49.891Z,99.99
2019-01-11T15:22:59.943Z,99.99
2019-01-11T15:24:16.363Z,99.99
2019-01-11T15:25:26.496Z,99.99
2019-01-11T15:26:36.939Z,99.99
2019-01-11T15:30:17.581Z,99.99
2019-01-11T15:31:27.390Z,99.99
2019-01-11T15:32:37.231Z,99.99
2019-01-11T15:33:47.324Z,99.99
2019-01-11T15:35:02.432Z,99.99
2019-01-11T15:36:12.246Z,99.99
2019-01-11T15:37:22.476Z,99.99
2019-01-11T15:38:32.558Z,99.99